sensor_id;sensor_type;location;lat;lon;timestamp;pressure;altitude;pressure_sealevel;temperature;humidity
7018;BME280;3549;42.162;24.726;2022-12-07T00:00:54;47903.50;;;-141.97;100.00
7018;BME280;3549;42.162;24.726;2022-12-07T00:03:20;47901.59;;;-141.97;100.00
7018;BME280;3549;42.162;24.726;2022-12-07T00:05:45;47911.19;;;-141.97;100.00
7018;BME280;3549;42.162;24.726;2022-12-07T00:08:11;47888.13;;;-141.97;100.00
7018;BME280;3549;42.162;24.726;2022-12-07T00:10:36;47870.81;;;-141.97;100.00
7018;BME280;3549;42.162;24.726;2022-12-07T00:13:02;47909.28;;;-141.97;100.00
7018;BME280;3549;42.162;24.726;2022-12-07T00:15:27;47866.97;;;-141.97;100.00
7018;BME280;3549;42.162;24.726;2022-12-07T00:17:52;47899.66;;;-141.97;100.00
7018;BME280;3549;42.162;24.726;2022-12-07T00:20:18;47907.34;;;-141.97;100.00
7018;BME280;3549;42.162;24.726;2022-12-07T00:22:43;47890.06;;;-141.97;100.00
7018;BME280;3549;42.162;24.726;2022-12-07T00:25:09;47870.81;;;-141.97;100.00
7018;BME280;3549;42.162;24.726;2022-12-07T00:27:34;47907.34;;;-141.97;100.00
7018;BME280;3549;42.162;24.726;2022-12-07T00:29:59;47915.03;;;-141.97;100.00
7018;BME280;3549;42.162;24.726;2022-12-07T00:32:25;47888.13;;;-141.97;100.00
7018;BME280;3549;42.162;24.726;2022-12-07T00:34:51;47918.88;;;-141.97;100.00
7018;BME280;3549;42.162;24.726;2022-12-07T00:37:16;47880.44;;;-141.97;100.00
7018;BME280;3549;42.162;24.726;2022-12-07T00:39:42;47965.03;;;-141.97;100.00
7018;BME280;3549;42.162;24.726;2022-12-07T00:42:07;47909.28;;;-141.97;100.00
7018;BME280;3549;42.162;24.726;2022-12-07T00:44:32;47915.03;;;-141.97;100.00
7018;BME280;3549;42.162;24.726;2022-12-07T00:46:58;47861.22;;;-141.97;100.00
7018;BME280;3549;42.162;24.726;2022-12-07T00:49:23;47876.59;;;-141.97;100.00
7018;BME280;3549;42.162;24.726;2022-12-07T00:51:49;47872.75;;;-141.97;100.00
7018;BME280;3549;42.162;24.726;2022-12-07T00:54:14;47859.28;;;-141.97;100.00
7018;BME280;3549;42.162;24.726;2022-12-07T00:56:40;47880.44;;;-141.97;100.00
7018;BME280;3549;42.162;24.726;2022-12-07T00:59:05;47907.34;;;-141.97;100.00
7018;BME280;3549;42.162;24.726;2022-12-07T01:01:34;47928.50;;;-141.97;100.00
7018;BME280;3549;42.162;24.726;2022-12-07T01:04:00;47897.75;;;-141.97;100.00
7018;BME280;3549;42.162;24.726;2022-12-07T01:06:26;47897.75;;;-141.97;100.00
7018;BME280;3549;42.162;24.726;2022-12-07T01:08:52;47903.50;;;-141.97;100.00
7018;BME280;3549;42.162;24.726;2022-12-07T01:11:23;47865.06;;;-141.97;100.00
7018;BME280;3549;42.162;24.726;2022-12-07T01:13:53;47922.72;;;-141.97;100.00
7018;BME280;3549;42.162;24.726;2022-12-07T01:16:20;47872.75;;;-141.97;100.00
7018;BME280;3549;42.162;24.726;2022-12-07T01:18:48;47865.06;;;-141.97;100.00
7018;BME280;3549;42.162;24.726;2022-12-07T01:21:17;47830.47;;;-141.97;100.00
7018;BME280;3549;42.162;24.726;2022-12-07T01:23:43;47884.28;;;-141.97;100.00
7018;BME280;3549;42.162;24.726;2022-12-07T01:26:15;47865.06;;;-141.97;100.00
7018;BME280;3549;42.162;24.726;2022-12-07T01:28:40;47872.75;;;-141.97;100.00
7018;BME280;3549;42.162;24.726;2022-12-07T01:31:12;47884.28;;;-141.97;100.00
7018;BME280;3549;42.162;24.726;2022-12-07T01:33:40;47884.28;;;-141.97;100.00
7018;BME280;3549;42.162;24.726;2022-12-07T01:36:12;47909.28;;;-141.97;100.00
7018;BME280;3549;42.162;24.726;2022-12-07T01:38:38;47907.34;;;-141.97;100.00
7018;BME280;3549;42.162;24.726;2022-12-07T01:41:03;47897.75;;;-141.97;100.00
7018;BME280;3549;42.162;24.726;2022-12-07T01:43:30;47895.81;;;-141.97;100.00
7018;BME280;3549;42.162;24.726;2022-12-07T01:45:56;47884.28;;;-141.97;100.00
7018;BME280;3549;42.162;24.726;2022-12-07T01:48:29;47865.06;;;-141.97;100.00
7018;BME280;3549;42.162;24.726;2022-12-07T01:51:00;47899.66;;;-141.97;100.00
7018;BME280;3549;42.162;24.726;2022-12-07T01:53:28;47905.44;;;-141.97;100.00
7018;BME280;3549;42.162;24.726;2022-12-07T01:55:55;47853.53;;;-141.97;100.00
7018;BME280;3549;42.162;24.726;2022-12-07T01:58:22;47920.81;;;-141.97;100.00
7018;BME280;3549;42.162;24.726;2022-12-07T02:00:48;48015.00;;;-141.97;100.00
7018;BME280;3549;42.162;24.726;2022-12-07T02:03:36;47890.06;;;-141.97;100.00
7018;BME280;3549;42.162;24.726;2022-12-07T02:06:04;47878.53;;;-141.97;100.00
7018;BME280;3549;42.162;24.726;2022-12-07T02:08:30;47922.72;;;-141.97;100.00
7018;BME280;3549;42.162;24.726;2022-12-07T02:10:55;47872.75;;;-141.97;100.00
7018;BME280;3549;42.162;24.726;2022-12-07T02:13:27;47882.38;;;-141.97;100.00
7018;BME280;3549;42.162;24.726;2022-12-07T02:18:59;47920.81;;;-141.97;100.00
7018;BME280;3549;42.162;24.726;2022-12-07T02:30:10;47895.81;;;-141.97;100.00
7018;BME280;3549;42.162;24.726;2022-12-07T02:32:59;47907.34;;;-141.97;100.00
7018;BME280;3549;42.162;24.726;2022-12-07T02:35:33;47938.09;;;-141.97;100.00
7018;BME280;3549;42.162;24.726;2022-12-07T02:41:00;47866.97;;;-141.97;100.00
7018;BME280;3549;42.162;24.726;2022-12-07T02:43:34;47905.44;;;-141.97;100.00
7018;BME280;3549;42.162;24.726;2022-12-07T02:46:04;47888.13;;;-141.97;100.00
7018;BME280;3549;42.162;24.726;2022-12-07T02:48:33;47932.34;;;-141.97;100.00
7018;BME280;3549;42.162;24.726;2022-12-07T02:51:00;47874.69;;;-141.97;100.00
7018;BME280;3549;42.162;24.726;2022-12-07T02:53:35;47880.44;;;-141.97;100.00
7018;BME280;3549;42.162;24.726;2022-12-07T03:13:10;47884.28;;;-141.97;100.00
7018;BME280;3549;42.162;24.726;2022-12-07T03:15:41;47995.78;;;-141.97;100.00
7018;BME280;3549;42.162;24.726;2022-12-07T03:18:07;47913.13;;;-141.97;100.00
7018;BME280;3549;42.162;24.726;2022-12-07T03:20:36;47888.13;;;-141.97;100.00
7018;BME280;3549;42.162;24.726;2022-12-07T03:23:04;47899.66;;;-141.97;100.00
7018;BME280;3549;42.162;24.726;2022-12-07T03:25:33;47891.97;;;-141.97;100.00
7018;BME280;3549;42.162;24.726;2022-12-07T03:28:04;47916.97;;;-141.97;100.00
7018;BME280;3549;42.162;24.726;2022-12-07T03:31:00;47857.38;;;-141.97;100.00
7018;BME280;3549;42.162;24.726;2022-12-07T03:33:56;47859.28;;;-141.97;100.00
7018;BME280;3549;42.162;24.726;2022-12-07T03:36:30;47882.38;;;-141.97;100.00
7018;BME280;3549;42.162;24.726;2022-12-07T03:41:35;47849.69;;;-141.97;100.00
7018;BME280;3549;42.162;24.726;2022-12-07T03:44:02;47903.50;;;-141.97;100.00
7018;BME280;3549;42.162;24.726;2022-12-07T03:52:20;47880.44;;;-141.97;100.00
7018;BME280;3549;42.162;24.726;2022-12-07T03:54:57;47870.81;;;-141.97;100.00
7018;BME280;3549;42.162;24.726;2022-12-07T03:57:26;47866.97;;;-141.97;100.00
7018;BME280;3549;42.162;24.726;2022-12-07T03:59:54;47868.91;;;-141.97;100.00
7018;BME280;3549;42.162;24.726;2022-12-07T04:02:21;47895.81;;;-141.97;100.00
7018;BME280;3549;42.162;24.726;2022-12-07T04:04:47;47922.72;;;-141.97;100.00
7018;BME280;3549;42.162;24.726;2022-12-07T04:07:13;47911.19;;;-141.97;100.00
7018;BME280;3549;42.162;24.726;2022-12-07T04:09:39;47865.06;;;-141.97;100.00
7018;BME280;3549;42.162;24.726;2022-12-07T04:12:04;47861.22;;;-141.97;100.00
7018;BME280;3549;42.162;24.726;2022-12-07T04:14:30;47888.13;;;-141.97;100.00
7018;BME280;3549;42.162;24.726;2022-12-07T04:16:57;47890.06;;;-141.97;100.00
7018;BME280;3549;42.162;24.726;2022-12-07T04:19:25;47863.13;;;-141.97;100.00
7018;BME280;3549;42.162;24.726;2022-12-07T04:21:51;47884.28;;;-141.97;100.00
7018;BME280;3549;42.162;24.726;2022-12-07T04:24:16;47899.66;;;-141.97;100.00
7018;BME280;3549;42.162;24.726;2022-12-07T04:26:43;47911.19;;;-141.97;100.00
7018;BME280;3549;42.162;24.726;2022-12-07T04:29:09;47853.53;;;-141.97;100.00
7018;BME280;3549;42.162;24.726;2022-12-07T04:31:36;47868.91;;;-141.97;100.00
7018;BME280;3549;42.162;24.726;2022-12-07T04:34:02;47911.19;;;-141.97;100.00
7018;BME280;3549;42.162;24.726;2022-12-07T04:36:27;47905.44;;;-141.97;100.00
7018;BME280;3549;42.162;24.726;2022-12-07T04:38:54;47880.44;;;-141.97;100.00
7018;BME280;3549;42.162;24.726;2022-12-07T04:41:20;47915.03;;;-141.97;100.00
7018;BME280;3549;42.162;24.726;2022-12-07T04:43:55;47922.72;;;-141.97;100.00
7018;BME280;3549;42.162;24.726;2022-12-07T04:46:23;47899.66;;;-141.97;100.00
7018;BME280;3549;42.162;24.726;2022-12-07T04:48:48;47876.59;;;-141.97;100.00
7018;BME280;3549;42.162;24.726;2022-12-07T04:51:19;47897.75;;;-141.97;100.00
7018;BME280;3549;42.162;24.726;2022-12-07T04:53:44;47899.66;;;-141.97;100.00
7018;BME280;3549;42.162;24.726;2022-12-07T04:56:10;47861.22;;;-141.97;100.00
7018;BME280;3549;42.162;24.726;2022-12-07T04:58:35;47895.81;;;-141.97;100.00
7018;BME280;3549;42.162;24.726;2022-12-07T05:01:01;47874.69;;;-141.97;100.00
7018;BME280;3549;42.162;24.726;2022-12-07T05:03:26;47886.22;;;-141.97;100.00
7018;BME280;3549;42.162;24.726;2022-12-07T05:05:51;47916.97;;;-141.97;100.00
7018;BME280;3549;42.162;24.726;2022-12-07T05:08:17;47909.28;;;-141.97;100.00
7018;BME280;3549;42.162;24.726;2022-12-07T05:10:42;47920.81;;;-141.97;100.00
7018;BME280;3549;42.162;24.726;2022-12-07T05:13:07;47897.75;;;-141.97;100.00
7018;BME280;3549;42.162;24.726;2022-12-07T05:15:33;47880.44;;;-141.97;100.00
7018;BME280;3549;42.162;24.726;2022-12-07T05:17:58;47884.28;;;-141.97;100.00
7018;BME280;3549;42.162;24.726;2022-12-07T05:20:24;47884.28;;;-141.97;100.00
7018;BME280;3549;42.162;24.726;2022-12-07T05:22:49;47922.72;;;-141.97;100.00
7018;BME280;3549;42.162;24.726;2022-12-07T05:25:14;47865.06;;;-141.97;100.00
7018;BME280;3549;42.162;24.726;2022-12-07T05:27:40;47915.03;;;-141.97;100.00
7018;BME280;3549;42.162;24.726;2022-12-07T05:30:06;47938.09;;;-141.97;100.00
7018;BME280;3549;42.162;24.726;2022-12-07T05:32:31;47901.59;;;-141.97;100.00
7018;BME280;3549;42.162;24.726;2022-12-07T05:34:57;47893.91;;;-141.97;100.00
7018;BME280;3549;42.162;24.726;2022-12-07T05:37:22;47884.28;;;-141.97;100.00
7018;BME280;3549;42.162;24.726;2022-12-07T05:39:47;47895.81;;;-141.97;100.00
7018;BME280;3549;42.162;24.726;2022-12-07T05:42:13;47897.75;;;-141.97;100.00
7018;BME280;3549;42.162;24.726;2022-12-07T05:44:39;47870.81;;;-141.97;100.00
7018;BME280;3549;42.162;24.726;2022-12-07T05:47:05;47876.59;;;-141.97;100.00
7018;BME280;3549;42.162;24.726;2022-12-07T05:49:31;47880.44;;;-141.97;100.00
7018;BME280;3549;42.162;24.726;2022-12-07T05:51:56;47868.91;;;-141.97;100.00
7018;BME280;3549;42.162;24.726;2022-12-07T05:54:22;47903.50;;;-141.97;100.00
7018;BME280;3549;42.162;24.726;2022-12-07T05:56:47;47965.03;;;-141.97;100.00
7018;BME280;3549;42.162;24.726;2022-12-07T05:59:12;47903.50;;;-141.97;100.00
7018;BME280;3549;42.162;24.726;2022-12-07T06:01:47;47903.50;;;-141.97;100.00
7018;BME280;3549;42.162;24.726;2022-12-07T06:04:13;47874.69;;;-141.97;100.00
7018;BME280;3549;42.162;24.726;2022-12-07T06:06:38;47907.34;;;-141.97;100.00
7018;BME280;3549;42.162;24.726;2022-12-07T06:09:04;47907.34;;;-141.97;100.00
7018;BME280;3549;42.162;24.726;2022-12-07T06:11:29;47888.13;;;-141.97;100.00
7018;BME280;3549;42.162;24.726;2022-12-07T06:14:13;47895.81;;;-141.97;100.00
7018;BME280;3549;42.162;24.726;2022-12-07T06:16:38;47893.91;;;-141.97;100.00
7018;BME280;3549;42.162;24.726;2022-12-07T06:19:04;47849.69;;;-141.97;100.00
7018;BME280;3549;42.162;24.726;2022-12-07T06:21:29;47907.34;;;-141.97;100.00
7018;BME280;3549;42.162;24.726;2022-12-07T06:23:55;47888.13;;;-141.97;100.00
7018;BME280;3549;42.162;24.726;2022-12-07T06:26:20;47884.28;;;-141.97;100.00
7018;BME280;3549;42.162;24.726;2022-12-07T06:28:46;47899.66;;;-141.97;100.00
7018;BME280;3549;42.162;24.726;2022-12-07T06:31:11;47870.81;;;-141.97;100.00
7018;BME280;3549;42.162;24.726;2022-12-07T06:33:37;47897.75;;;-141.97;100.00
7018;BME280;3549;42.162;24.726;2022-12-07T06:36:02;47899.66;;;-141.97;100.00
7018;BME280;3549;42.162;24.726;2022-12-07T06:38:28;47899.66;;;-141.97;100.00
7018;BME280;3549;42.162;24.726;2022-12-07T06:40:53;47897.75;;;-141.97;100.00
7018;BME280;3549;42.162;24.726;2022-12-07T06:43:18;47870.81;;;-141.97;100.00
7018;BME280;3549;42.162;24.726;2022-12-07T06:45:44;47888.13;;;-141.97;100.00
7018;BME280;3549;42.162;24.726;2022-12-07T06:48:09;47938.09;;;-141.97;100.00
7018;BME280;3549;42.162;24.726;2022-12-07T06:50:35;47888.13;;;-141.97;100.00
7018;BME280;3549;42.162;24.726;2022-12-07T06:53:00;47911.19;;;-141.97;100.00
7018;BME280;3549;42.162;24.726;2022-12-07T06:55:26;47915.03;;;-141.97;100.00
7018;BME280;3549;42.162;24.726;2022-12-07T06:57:51;47884.28;;;-141.97;100.00
7018;BME280;3549;42.162;24.726;2022-12-07T07:00:17;47957.34;;;-141.97;100.00
7018;BME280;3549;42.162;24.726;2022-12-07T07:02:42;47895.81;;;-141.97;100.00
7018;BME280;3549;42.162;24.726;2022-12-07T07:05:08;47928.50;;;-141.97;100.00
7018;BME280;3549;42.162;24.726;2022-12-07T07:07:33;47880.44;;;-141.97;100.00
7018;BME280;3549;42.162;24.726;2022-12-07T07:09:59;47859.28;;;-141.97;100.00
7018;BME280;3549;42.162;24.726;2022-12-07T07:12:24;47911.19;;;-141.97;100.00
7018;BME280;3549;42.162;24.726;2022-12-07T07:14:50;47884.28;;;-141.97;100.00
7018;BME280;3549;42.162;24.726;2022-12-07T07:17:15;47911.19;;;-141.97;100.00
7018;BME280;3549;42.162;24.726;2022-12-07T07:19:40;47905.44;;;-141.97;100.00
7018;BME280;3549;42.162;24.726;2022-12-07T07:22:06;47888.13;;;-141.97;100.00
7018;BME280;3549;42.162;24.726;2022-12-07T07:24:31;47963.09;;;-141.97;100.00
7018;BME280;3549;42.162;24.726;2022-12-07T07:26:57;47876.59;;;-141.97;100.00
7018;BME280;3549;42.162;24.726;2022-12-07T07:29:22;47897.75;;;-141.97;100.00
7018;BME280;3549;42.162;24.726;2022-12-07T07:31:47;47882.38;;;-141.97;100.00
7018;BME280;3549;42.162;24.726;2022-12-07T07:34:13;47884.28;;;-141.97;100.00
7018;BME280;3549;42.162;24.726;2022-12-07T07:36:38;47853.53;;;-141.97;100.00
7018;BME280;3549;42.162;24.726;2022-12-07T07:39:04;47951.56;;;-141.97;100.00
7018;BME280;3549;42.162;24.726;2022-12-07T07:41:30;47872.75;;;-141.97;100.00
7018;BME280;3549;42.162;24.726;2022-12-07T07:43:55;47905.44;;;-141.97;100.00
7018;BME280;3549;42.162;24.726;2022-12-07T07:46:20;47984.25;;;-141.97;100.00
7018;BME280;3549;42.162;24.726;2022-12-07T07:48:46;47851.59;;;-141.97;100.00
7018;BME280;3549;42.162;24.726;2022-12-07T07:51:11;47897.75;;;-141.97;100.00
7018;BME280;3549;42.162;24.726;2022-12-07T07:53:37;47880.44;;;-141.97;100.00
7018;BME280;3549;42.162;24.726;2022-12-07T07:56:02;47832.38;;;-141.97;100.00
7018;BME280;3549;42.162;24.726;2022-12-07T07:58:28;47861.22;;;-141.97;100.00
7018;BME280;3549;42.162;24.726;2022-12-07T08:00:54;47899.66;;;-141.97;100.00
7018;BME280;3549;42.162;24.726;2022-12-07T08:03:19;47897.75;;;-141.97;100.00
7018;BME280;3549;42.162;24.726;2022-12-07T08:05:45;47903.50;;;-141.97;100.00
7018;BME280;3549;42.162;24.726;2022-12-07T08:08:10;47913.13;;;-141.97;100.00
7018;BME280;3549;42.162;24.726;2022-12-07T08:10:36;47930.41;;;-141.97;100.00
7018;BME280;3549;42.162;24.726;2022-12-07T08:13:02;47934.25;;;-141.97;100.00
7018;BME280;3549;42.162;24.726;2022-12-07T08:15:41;47876.59;;;-141.97;99.46
7018;BME280;3549;42.162;24.726;2022-12-07T08:18:07;47836.22;;;-141.97;97.36
7018;BME280;3549;42.162;24.726;2022-12-07T08:20:34;47901.59;;;-141.97;94.63
7018;BME280;3549;42.162;24.726;2022-12-07T08:23:00;47845.84;;;-141.97;92.85
7018;BME280;3549;42.162;24.726;2022-12-07T08:25:25;47915.03;;;-141.97;92.38
7018;BME280;3549;42.162;24.726;2022-12-07T08:27:51;47941.94;;;-141.97;92.01
7018;BME280;3549;42.162;24.726;2022-12-07T08:30:17;47890.06;;;-141.97;91.38
7018;BME280;3549;42.162;24.726;2022-12-07T08:32:47;47880.44;;;-141.97;89.57
7018;BME280;3549;42.162;24.726;2022-12-07T08:35:12;47893.91;;;-141.97;86.80
7018;BME280;3549;42.162;24.726;2022-12-07T08:37:38;47845.84;;;-141.97;85.42
7018;BME280;3549;42.162;24.726;2022-12-07T08:40:06;47884.28;;;-141.97;84.68
7018;BME280;3549;42.162;24.726;2022-12-07T08:42:31;47861.22;;;-141.97;85.47
7018;BME280;3549;42.162;24.726;2022-12-07T08:45:08;47866.97;;;-141.97;86.29
7018;BME280;3549;42.162;24.726;2022-12-07T08:47:37;47874.69;;;-141.97;84.62
7018;BME280;3549;42.162;24.726;2022-12-07T08:50:06;47966.94;;;-141.97;83.57
7018;BME280;3549;42.162;24.726;2022-12-07T08:52:33;47915.03;;;-141.97;82.70
7018;BME280;3549;42.162;24.726;2022-12-07T08:55:00;47884.28;;;-141.97;82.41
7018;BME280;3549;42.162;24.726;2022-12-07T08:57:27;47843.91;;;-141.97;81.66
7018;BME280;3549;42.162;24.726;2022-12-07T08:59:53;47916.97;;;-141.97;80.90
7018;BME280;3549;42.162;24.726;2022-12-07T09:02:19;47884.28;;;-141.97;80.12
7018;BME280;3549;42.162;24.726;2022-12-07T09:04:44;47913.13;;;-141.97;79.29
7018;BME280;3549;42.162;24.726;2022-12-07T09:07:09;47836.22;;;-141.97;80.71
7018;BME280;3549;42.162;24.726;2022-12-07T09:09:35;47695.91;;;-141.97;82.71
7018;BME280;3549;42.162;24.726;2022-12-07T09:12:01;47843.91;;;-141.97;81.41
7018;BME280;3549;42.162;24.726;2022-12-07T09:14:26;47853.53;;;-141.97;80.42
7018;BME280;3549;42.162;24.726;2022-12-07T09:16:52;47749.72;;;-141.97;80.39
7018;BME280;3549;42.162;24.726;2022-12-07T09:19:17;47849.69;;;-141.97;79.93
7018;BME280;3549;42.162;24.726;2022-12-07T09:21:42;47843.91;;;-141.97;80.44
7018;BME280;3549;42.162;24.726;2022-12-07T09:24:08;47870.81;;;-141.97;79.86
7018;BME280;3549;42.162;24.726;2022-12-07T09:26:34;47840.06;;;-141.97;79.87
7018;BME280;3549;42.162;24.726;2022-12-07T09:29:02;47828.53;;;-141.97;64.52
7018;BME280;3549;42.162;24.726;2022-12-07T09:31:27;47982.31;;;-141.97;63.57
7018;BME280;3549;42.162;24.726;2022-12-07T09:33:59;47880.44;;;-141.97;63.73
7018;BME280;3549;42.162;24.726;2022-12-07T09:36:26;47842.00;;;-141.97;63.56
7018;BME280;3549;42.162;24.726;2022-12-07T09:38:52;47842.00;;;-141.97;62.63
7018;BME280;3549;42.162;24.726;2022-12-07T09:41:17;47882.38;;;-141.97;63.93
7018;BME280;3549;42.162;24.726;2022-12-07T09:43:43;47870.81;;;-141.97;63.99
7018;BME280;3549;42.162;24.726;2022-12-07T09:46:14;47818.94;;;-141.97;64.01
7018;BME280;3549;42.162;24.726;2022-12-07T09:48:39;47849.69;;;-141.97;63.73
7018;BME280;3549;42.162;24.726;2022-12-07T09:51:14;47853.53;;;-141.97;63.95
7018;BME280;3549;42.162;24.726;2022-12-07T09:53:42;47792.03;;;-141.97;63.93
7018;BME280;3549;42.162;24.726;2022-12-07T09:56:12;47840.06;;;-141.97;65.35
7018;BME280;3549;42.162;24.726;2022-12-07T09:58:38;47845.84;;;-141.97;63.52
7018;BME280;3549;42.162;24.726;2022-12-07T10:01:14;47861.22;;;-141.97;62.61
7018;BME280;3549;42.162;24.726;2022-12-07T10:03:47;47832.38;;;-141.97;60.96
7018;BME280;3549;42.162;24.726;2022-12-07T10:06:14;47834.31;;;-141.97;60.88
7018;BME280;3549;42.162;24.726;2022-12-07T10:08:39;47811.25;;;-141.97;60.75
7018;BME280;3549;42.162;24.726;2022-12-07T10:11:06;47815.09;;;-141.97;61.01
7018;BME280;3549;42.162;24.726;2022-12-07T10:13:44;47817.00;;;-141.97;60.74
7018;BME280;3549;42.162;24.726;2022-12-07T10:16:27;47834.31;;;-141.97;60.49
7018;BME280;3549;42.162;24.726;2022-12-07T10:18:56;47838.16;;;-141.97;60.52
7018;BME280;3549;42.162;24.726;2022-12-07T10:21:24;47838.16;;;-141.97;59.82
7018;BME280;3549;42.162;24.726;2022-12-07T10:24:25;47795.88;;;-141.97;60.49
7018;BME280;3549;42.162;24.726;2022-12-07T10:26:52;47811.25;;;-141.97;60.32
7018;BME280;3549;42.162;24.726;2022-12-07T10:29:34;47849.69;;;-141.97;61.14
7018;BME280;3549;42.162;24.726;2022-12-07T10:32:04;47851.59;;;-141.97;61.45
7018;BME280;3549;42.162;24.726;2022-12-07T10:34:32;47818.94;;;-141.97;61.82
7018;BME280;3549;42.162;24.726;2022-12-07T10:39:46;47861.22;;;-141.97;60.64
7018;BME280;3549;42.162;24.726;2022-12-07T10:44:49;47778.56;;;-141.97;58.31
7018;BME280;3549;42.162;24.726;2022-12-07T10:50:37;47830.47;;;-141.97;58.85
7018;BME280;3549;42.162;24.726;2022-12-07T10:56:07;47820.84;;;-141.97;60.53
7018;BME280;3549;42.162;24.726;2022-12-07T11:01:47;47853.53;;;-141.97;60.19
7018;BME280;3549;42.162;24.726;2022-12-07T11:04:37;47817.00;;;-141.97;59.91
7018;BME280;3549;42.162;24.726;2022-12-07T11:07:10;47815.09;;;-141.97;58.52
7018;BME280;3549;42.162;24.726;2022-12-07T11:18:07;47845.84;;;-141.97;60.81
7018;BME280;3549;42.162;24.726;2022-12-07T11:29:35;47842.00;;;-141.97;61.77
7018;BME280;3549;42.162;24.726;2022-12-07T11:38:08;47855.44;;;-141.97;61.10
7018;BME280;3549;42.162;24.726;2022-12-07T11:40:36;47830.47;;;-141.97;62.32
7018;BME280;3549;42.162;24.726;2022-12-07T11:43:31;47840.06;;;-141.97;62.84
7018;BME280;3549;42.162;24.726;2022-12-07T11:46:03;47857.38;;;-141.97;64.13
7018;BME280;3549;42.162;24.726;2022-12-07T11:48:40;47868.91;;;-141.97;64.68
7018;BME280;3549;42.162;24.726;2022-12-07T11:51:10;47853.53;;;-141.97;64.69
7018;BME280;3549;42.162;24.726;2022-12-07T11:53:45;47876.59;;;-141.97;64.72
7018;BME280;3549;42.162;24.726;2022-12-07T11:56:15;47843.91;;;-141.97;64.39
7018;BME280;3549;42.162;24.726;2022-12-07T12:01:28;47845.84;;;-141.97;63.35
7018;BME280;3549;42.162;24.726;2022-12-07T12:06:36;47843.91;;;-141.97;63.04
7018;BME280;3549;42.162;24.726;2022-12-07T12:18:21;47820.84;;;-141.97;61.30
7018;BME280;3549;42.162;24.726;2022-12-07T12:20:57;47840.06;;;-141.97;60.75
7018;BME280;3549;42.162;24.726;2022-12-07T12:23:50;47815.09;;;-141.97;61.04
7018;BME280;3549;42.162;24.726;2022-12-07T12:26:24;47824.69;;;-141.97;60.92
7018;BME280;3549;42.162;24.726;2022-12-07T12:28:57;47845.84;;;-141.97;60.96
7018;BME280;3549;42.162;24.726;2022-12-07T12:33:57;47895.81;;;-141.97;61.28
7018;BME280;3549;42.162;24.726;2022-12-07T12:36:44;47840.06;;;-141.97;61.73
7018;BME280;3549;42.162;24.726;2022-12-07T12:39:15;47861.22;;;-141.97;62.03
7018;BME280;3549;42.162;24.726;2022-12-07T12:49:33;47807.41;;;-141.97;63.24
7018;BME280;3549;42.162;24.726;2022-12-07T12:57:36;47872.75;;;-141.97;64.30
7018;BME280;3549;42.162;24.726;2022-12-07T13:00:23;47832.38;;;-141.97;64.93
7018;BME280;3549;42.162;24.726;2022-12-07T13:02:55;47859.28;;;-141.97;65.06
7018;BME280;3549;42.162;24.726;2022-12-07T13:05:23;47822.78;;;-141.97;65.28
7018;BME280;3549;42.162;24.726;2022-12-07T13:07:55;47842.00;;;-141.97;64.59
7018;BME280;3549;42.162;24.726;2022-12-07T13:15:52;47863.13;;;-141.97;65.05
7018;BME280;3549;42.162;24.726;2022-12-07T13:29:20;47840.06;;;-141.97;65.35
7018;BME280;3549;42.162;24.726;2022-12-07T13:31:51;47851.59;;;-141.97;65.41
7018;BME280;3549;42.162;24.726;2022-12-07T13:34:33;47868.91;;;-141.97;65.34
7018;BME280;3549;42.162;24.726;2022-12-07T13:37:01;47842.00;;;-141.97;65.38
7018;BME280;3549;42.162;24.726;2022-12-07T13:39:28;47863.13;;;-141.97;65.00
7018;BME280;3549;42.162;24.726;2022-12-07T13:41:57;47851.59;;;-141.97;65.25
7018;BME280;3549;42.162;24.726;2022-12-07T13:44:25;47815.09;;;-141.97;65.52
7018;BME280;3549;42.162;24.726;2022-12-07T13:47:05;47818.94;;;-141.97;65.40
7018;BME280;3549;42.162;24.726;2022-12-07T13:49:37;47876.59;;;-141.97;65.67
7018;BME280;3549;42.162;24.726;2022-12-07T13:54:47;47828.53;;;-141.97;66.28
7018;BME280;3549;42.162;24.726;2022-12-07T13:57:14;47824.69;;;-141.97;66.46
7018;BME280;3549;42.162;24.726;2022-12-07T13:59:40;47855.44;;;-141.97;66.42
7018;BME280;3549;42.162;24.726;2022-12-07T14:04:49;47815.09;;;-141.97;67.03
7018;BME280;3549;42.162;24.726;2022-12-07T14:07:25;47838.16;;;-141.97;67.48
7018;BME280;3549;42.162;24.726;2022-12-07T14:10:04;47845.84;;;-141.97;67.66
7018;BME280;3549;42.162;24.726;2022-12-07T14:12:32;47807.41;;;-141.97;67.75
7018;BME280;3549;42.162;24.726;2022-12-07T14:15:01;47818.94;;;-141.97;68.17
7018;BME280;3549;42.162;24.726;2022-12-07T14:17:27;47865.06;;;-141.97;68.29
7018;BME280;3549;42.162;24.726;2022-12-07T14:20:01;47865.06;;;-141.97;68.23
7018;BME280;3549;42.162;24.726;2022-12-07T14:22:35;47876.59;;;-141.97;68.53
7018;BME280;3549;42.162;24.726;2022-12-07T14:27:38;47832.38;;;-141.97;69.50
7018;BME280;3549;42.162;24.726;2022-12-07T14:30:04;47826.63;;;-141.97;70.01
7018;BME280;3549;42.162;24.726;2022-12-07T14:32:30;47884.28;;;-141.97;69.84
7018;BME280;3549;42.162;24.726;2022-12-07T14:35:02;47826.63;;;-141.97;70.00
7018;BME280;3549;42.162;24.726;2022-12-07T14:37:29;47811.25;;;-141.97;69.78
7018;BME280;3549;42.162;24.726;2022-12-07T14:39:55;47803.56;;;-141.97;70.01
7018;BME280;3549;42.162;24.726;2022-12-07T14:42:22;47903.50;;;-141.97;69.85
7018;BME280;3549;42.162;24.726;2022-12-07T14:44:49;47872.75;;;-141.97;69.83
7018;BME280;3549;42.162;24.726;2022-12-07T14:47:14;47845.84;;;-141.97;70.30
7018;BME280;3549;42.162;24.726;2022-12-07T14:49:40;47980.41;;;-141.97;70.88
7018;BME280;3549;42.162;24.726;2022-12-07T14:52:12;47940.03;;;-141.97;71.37
7018;BME280;3549;42.162;24.726;2022-12-07T14:54:38;47911.19;;;-141.97;71.84
7018;BME280;3549;42.162;24.726;2022-12-07T14:57:04;47842.00;;;-141.97;72.21
7018;BME280;3549;42.162;24.726;2022-12-07T14:59:29;47815.09;;;-141.97;72.67
7018;BME280;3549;42.162;24.726;2022-12-07T15:01:54;47878.53;;;-141.97;72.95